Williams, AZ

11:14 AM MST on March 30, 2015 (GMT -0700)
RAWS KAIBAB-SK MICRO #3 AZ US | | Change Station
CLOSE
Current Station
Personal Weather Station
Location: Williams, AZ
Elevation: 6844 ft
Nearby Weather Stations

Elev 6844 ft 35.24 °N, 112.22 °W | Updated 6 days ago

Clear
Clear
69 °F
Feels Like 69 °F
N
10
Wind Variable Wind from SW
Gusts mph

Today
High -- | Low -- °F
--% Chance of Precip.
Yesterday
High -- | Low -- °F
Precip. -- in
6:18 AM 6:48 PM
Waxing Gibbous, 81% visible
Pressure 30.38 in
Visibility 10.0 miles
Clouds Clear
Dew Point 15 °F
Humidity 12%
Rainfall in
Snow Depth Not available.
UV 9 out of 12
Pollen 10.10 out of 12
Air Quality Not available.
Flu Activity Not available.
METAR KCMR 301755Z AUTO VRB04KT 10SM CLR 19/M08 A3038 RMK AO2

More Conditions Fewer Conditions

Pressure 30.38 in
Visibility 10.0 miles
Clouds Clear
Dew Point 15 °F
Humidity 12%
Rainfall in
Snow Depth Not available.
UV 9 out of 12
Pollen 10.10 out of 12
Air Quality Not available.
Flu Activity Not available.
METAR KCMR 301755Z AUTO VRB04KT 10SM CLR 19/M08 A3038 RMK AO2

More Conditions Fewer Conditions

10-Day Weather Forecast

Almanac

Astronomy

Mar. 30, 2015 Rise Set
Actual Time
Civil Twilight
Nautical Twilight
Astronomical Twilight
Moon
Length of Visible Light
Length of Day
Tomorrow will be .
, % of the Moon is Illuminated

Today's Extremes

State Highs State Lows

Community

WunderPhotos

Upload Photos

1,809,559 photos uploaded!

WunderBlogs® & News

Nearby

Air Quality

  Air Quality AQ Index Pollutant
Not available.

Snow Depth

Station Depth Elevation

Earthquake Activity

City Distance Mag. Time & Date
Minimum magnitude displayed is 2.5.

Coastal Water Temperatures

Place Temperature

Stations

Nearby Weather Stations

Station Location Temp. Windchill Dew Point Humidity Wind Precip. Elev Updated Type